Time;durP1;ratioP1;P1;durP2;ratioP2;P2;SDS_P1;SDS_P2;PMS_P1;PMS_P2;Temp;Humidity;BMP_temperature;BMP_pressure;BME280_temperature;BME280_humidity;BME280_pressure;Samples;Min_cycle;Max_cycle;Signal;HPM_P1;HPM_P2
2023/06/02 00:00:23;;;;;;;2.60;1.30;;;;;;;;;;5022111;28;20104;-86
2023/06/02 00:02:51;;;;;;;3.95;1.40;;;;;;;;;;5038172;28;20025;-87
2023/06/02 00:05:16;;;;;;;1.90;1.40;;;;;;;;;;5022673;28;20033;-86
2023/06/02 00:07:42;;;;;;;3.00;1.45;;;;;;;;;;5056077;28;20550;-87
2023/06/02 00:10:08;;;;;;;4.60;1.38;;;;;;;;;;5041320;28;20053;-85
2023/06/02 00:12:33;;;;;;;3.53;1.42;;;;;;;;;;5042714;28;20033;-87
2023/06/02 00:14:59;;;;;;;3.42;1.50;;;;;;;;;;5058134;28;20121;-86
2023/06/02 00:17:24;;;;;;;1.95;1.33;;;;;;;;;;5038427;28;20037;-85
2023/06/02 00:19:50;;;;;;;3.13;1.45;;;;;;;;;;5038365;28;20036;-86
2023/06/02 00:22:17;;;;;;;2.05;1.38;;;;;;;;;;5056666;28;20033;-85
2023/06/02 00:24:43;;;;;;;3.30;1.60;;;;;;;;;;5039393;28;20024;-86
2023/06/02 00:27:09;;;;;;;2.10;1.38;;;;;;;;;;5038886;28;20051;-85
2023/06/02 00:29:35;;;;;;;2.90;1.50;;;;;;;;;;5022010;28;20036;-86
2023/06/02 00:32:01;;;;;;;2.90;1.30;;;;;;;;;;5037921;28;20029;-85
2023/06/02 00:34:26;;;;;;;3.85;1.60;;;;;;;;;;5022541;28;20095;-85
2023/06/02 00:36:51;;;;;;;3.92;1.45;;;;;;;;;;5055676;28;20025;-86
2023/06/02 00:39:17;;;;;;;3.78;1.80;;;;;;;;;;5056809;28;20033;-86
2023/06/02 00:41:43;;;;;;;2.72;1.30;;;;;;;;;;5037817;28;20120;-86
2023/06/02 00:44:09;;;;;;;3.00;1.40;;;;;;;;;;5038103;28;20048;-85
2023/06/02 00:46:34;;;;;;;3.13;1.40;;;;;;;;;;5055220;28;20053;-85
2023/06/02 00:49:00;;;;;;;2.92;1.55;;;;;;;;;;5055721;28;20488;-86
2023/06/02 00:51:25;;;;;;;4.43;1.58;;;;;;;;;;5054867;28;20025;-86
2023/06/02 00:53:51;;;;;;;2.75;1.35;;;;;;;;;;5054307;28;20120;-85
2023/06/02 00:56:16;;;;;;;2.95;1.30;;;;;;;;;;5037444;28;20124;-85
2023/06/02 00:58:45;;;;;;;3.70;1.52;;;;;;;;;;5037490;28;20033;-85
2023/06/02 01:01:12;;;;;;;3.92;1.55;;;;;;;;;;5038697;28;20028;-86
2023/06/02 01:03:43;;;;;;;3.55;1.67;;;;;;;;;;5020819;28;20028;-85
2023/06/02 01:06:09;;;;;;;3.28;1.23;;;;;;;;;;5037593;28;20024;-86
2023/06/02 01:08:39;;;;;;;2.25;1.40;;;;;;;;;;5020849;28;20104;-85
2023/06/02 01:11:05;;;;;;;2.58;1.45;;;;;;;;;;5037969;28;20096;-85
2023/06/02 01:13:30;;;;;;;2.05;1.30;;;;;;;;;;5036639;28;20032;-85
2023/06/02 01:15:56;;;;;;;4.53;1.45;;;;;;;;;;5055306;28;20108;-84
2023/06/02 01:18:23;;;;;;;4.00;1.35;;;;;;;;;;5054569;28;20032;-86
2023/06/02 01:20:51;;;;;;;3.80;1.60;;;;;;;;;;5054410;28;20029;-84
2023/06/02 01:23:23;;;;;;;2.95;1.60;;;;;;;;;;5036968;28;20432;-85
2023/06/02 01:25:52;;;;;;;3.78;1.52;;;;;;;;;;5036556;28;20095;-86
2023/06/02 01:28:18;;;;;;;2.83;1.35;;;;;;;;;;5036513;28;20475;-85
2023/06/02 01:30:43;;;;;;;4.05;1.52;;;;;;;;;;5019930;28;20033;-86
2023/06/02 01:33:27;;;;;;;3.05;1.50;;;;;;;;;;5054470;28;20021;-85
2023/06/02 01:36:00;;;;;;;3.00;1.58;;;;;;;;;;5036118;28;20060;-85
2023/06/02 01:38:26;;;;;;;4.63;1.60;;;;;;;;;;5037301;28;20029;-84
2023/06/02 01:40:58;;;;;;;2.80;1.40;;;;;;;;;;5037089;28;20067;-85
2023/06/02 01:43:23;;;;;;;2.95;1.65;;;;;;;;;;5019543;28;20025;-85
2023/06/02 01:45:49;;;;;;;4.93;1.88;;;;;;;;;;5053661;28;20102;-84
2023/06/02 01:48:15;;;;;;;4.20;1.52;;;;;;;;;;5035994;28;20487;-84
2023/06/02 01:50:40;;;;;;;3.58;1.58;;;;;;;;;;5036188;28;20048;-84
2023/06/02 01:53:06;;;;;;;3.67;1.50;;;;;;;;;;5054031;28;20100;-84
2023/06/02 01:55:32;;;;;;;7.38;1.35;;;;;;;;;;5036411;28;20052;-84
2023/06/02 01:57:58;;;;;;;4.43;1.38;;;;;;;;;;5056819;28;20048;-84
2023/06/02 02:00:23;;;;;;;2.25;1.20;;;;;;;;;;5040323;28;20484;-84
2023/06/02 02:02:50;;;;;;;3.65;1.48;;;;;;;;;;5040543;28;20028;-84
2023/06/02 02:05:15;;;;;;;2.17;1.20;;;;;;;;;;5039148;28;20116;-84
2023/06/02 02:07:45;;;;;;;2.50;1.58;;;;;;;;;;5058133;28;20062;-84
2023/06/02 02:10:11;;;;;;;5.22;1.63;;;;;;;;;;5037326;28;20024;-85
2023/06/02 02:12:37;;;;;;;4.22;1.50;;;;;;;;;;5036332;28;20029;-85
2023/06/02 02:15:04;;;;;;;2.28;1.25;;;;;;;;;;5042789;28;20044;-84
2023/06/02 02:17:30;;;;;;;3.33;1.80;;;;;;;;;;5063578;28;20096;-84
2023/06/02 02:19:56;;;;;;;4.05;1.70;;;;;;;;;;5042309;28;20053;-84
2023/06/02 02:22:25;;;;;;;1.92;1.27;;;;;;;;;;5038414;28;20016;-85
2023/06/02 02:24:51;;;;;;;3.15;1.40;;;;;;;;;;5037729;28;20029;-84
2023/06/02 02:27:17;;;;;;;3.05;1.60;;;;;;;;;;5037957;28;20032;-84
2023/06/02 02:29:43;;;;;;;4.38;1.50;;;;;;;;;;5037623;28;20028;-84
2023/06/02 02:32:08;;;;;;;4.35;1.70;;;;;;;;;;5035999;28;20033;-84
2023/06/02 02:34:34;;;;;;;5.28;1.42;;;;;;;;;;5037363;28;20032;-84
2023/06/02 02:37:03;;;;;;;4.10;1.40;;;;;;;;;;5053998;28;20061;-84
2023/06/02 02:39:29;;;;;;;4.13;1.63;;;;;;;;;;5035899;28;20036;-85
2023/06/02 02:41:54;;;;;;;1.88;1.30;;;;;;;;;;5035342;28;20025;-83
2023/06/02 02:44:20;;;;;;;2.80;1.42;;;;;;;;;;5035401;28;20060;-84
2023/06/02 02:46:45;;;;;;;3.30;1.42;;;;;;;;;;5018988;28;20154;-85
2023/06/02 02:49:11;;;;;;;3.70;1.30;;;;;;;;;;5053109;28;20037;-86
2023/06/02 02:51:36;;;;;;;3.80;1.38;;;;;;;;;;5035572;28;20033;-86
2023/06/02 02:54:03;;;;;;;2.58;1.58;;;;;;;;;;5035081;28;20033;-86
2023/06/02 02:56:28;;;;;;;6.97;1.48;;;;;;;;;;5019086;28;20487;-85
2023/06/02 02:58:56;;;;;;;3.55;1.40;;;;;;;;;;5035775;28;20040;-85
2023/06/02 03:01:22;;;;;;;3.28;1.45;;;;;;;;;;5035093;28;20115;-85
2023/06/02 03:03:49;;;;;;;2.67;1.35;;;;;;;;;;5035358;28;20025;-86
2023/06/02 03:06:18;;;;;;;2.30;1.30;;;;;;;;;;5054054;28;20029;-85
2023/06/02 03:08:46;;;;;;;4.55;1.63;;;;;;;;;;5035783;28;20033;-86
2023/06/02 03:11:12;;;;;;;3.85;1.50;;;;;;;;;;5053155;28;20122;-85
2023/06/02 03:13:37;;;;;;;5.82;1.63;;;;;;;;;;5035901;28;20468;-84
2023/06/02 03:16:03;;;;;;;3.40;1.33;;;;;;;;;;5039652;28;20035;-84
2023/06/02 03:18:28;;;;;;;2.63;1.40;;;;;;;;;;5040538;28;20029;-84
2023/06/02 03:20:55;;;;;;;3.83;1.60;;;;;;;;;;5041602;28;20033;-85
2023/06/02 03:23:21;;;;;;;3.60;1.65;;;;;;;;;;5065803;28;20025;-84
2023/06/02 03:25:47;;;;;;;2.08;1.20;;;;;;;;;;5046969;28;20029;-85
2023/06/02 03:28:12;;;;;;;2.50;1.42;;;;;;;;;;5045665;28;20107;-85
2023/06/02 03:30:38;;;;;;;2.92;1.55;;;;;;;;;;5039725;28;20040;-85
2023/06/02 03:33:03;;;;;;;2.67;1.40;;;;;;;;;;5056821;28;20476;-86
2023/06/02 03:35:29;;;;;;;3.05;1.55;;;;;;;;;;5022655;28;20036;-85
2023/06/02 03:37:54;;;;;;;3.15;1.42;;;;;;;;;;5040303;28;20020;-84
2023/06/02 03:40:20;;;;;;;3.30;1.48;;;;;;;;;;5022344;28;20039;-85
2023/06/02 03:42:45;;;;;;;3.17;1.50;;;;;;;;;;5021800;28;20135;-85
2023/06/02 03:45:11;;;;;;;4.60;1.90;;;;;;;;;;5056157;28;20096;-85
2023/06/02 03:47:36;;;;;;;2.55;1.40;;;;;;;;;;5055952;28;20029;-86
2023/06/02 03:50:02;;;;;;;3.00;1.38;;;;;;;;;;5038206;28;20067;-86
2023/06/02 03:52:30;;;;;;;7.05;1.48;;;;;;;;;;5038255;28;20120;-86
2023/06/02 03:54:56;;;;;;;5.03;1.48;;;;;;;;;;5038588;28;20090;-85
2023/06/02 03:57:22;;;;;;;3.35;1.65;;;;;;;;;;5056247;28;20056;-84
2023/06/02 03:59:47;;;;;;;1.85;1.13;;;;;;;;;;5038094;28;20068;-84
2023/06/02 04:02:12;;;;;;;3.15;1.75;;;;;;;;;;5056233;28;20032;-83
2023/06/02 04:04:38;;;;;;;4.25;2.00;;;;;;;;;;5038371;28;20029;-84
2023/06/02 04:07:04;;;;;;;2.53;1.30;;;;;;;;;;5038090;28;20039;-85
2023/06/02 04:09:29;;;;;;;3.90;1.80;;;;;;;;;;5055570;28;20117;-84
2023/06/02 04:11:54;;;;;;;4.97;1.65;;;;;;;;;;5055402;28;20126;-84
2023/06/02 04:14:20;;;;;;;2.92;1.50;;;;;;;;;;5055237;28;20075;-86
2023/06/02 04:16:46;;;;;;;4.20;1.50;;;;;;;;;;5037871;28;20032;-84
2023/06/02 04:19:11;;;;;;;4.10;1.63;;;;;;;;;;5021104;28;20036;-82
2023/06/02 04:21:37;;;;;;;5.00;1.67;;;;;;;;;;5037824;28;20033;-87
2023/06/02 04:24:02;;;;;;;6.50;2.20;;;;;;;;;;5038175;28;20029;-84
2023/06/02 04:26:27;;;;;;;5.57;2.38;;;;;;;;;;5020953;28;20383;-84
2023/06/02 04:28:53;;;;;;;8.20;3.00;;;;;;;;;;5004618;28;20028;-84
2023/06/02 04:31:26;;;;;;;7.90;3.10;;;;;;;;;;5037741;28;20369;-84
2023/06/02 04:33:53;;;;;;;10.02;2.95;;;;;;;;;;5055211;28;20105;-85
2023/06/02 04:36:19;;;;;;;8.15;3.22;;;;;;;;;;5038133;28;20037;-87
2023/06/02 04:38:45;;;;;;;9.32;2.75;;;;;;;;;;5004444;28;20040;-88
2023/06/02 04:41:11;;;;;;;7.10;3.00;;;;;;;;;;5055706;28;20036;-89
2023/06/02 04:43:38;;;;;;;9.55;3.05;;;;;;;;;;5022379;28;20383;-84
2023/06/02 04:46:06;;;;;;;15.07;4.10;;;;;;;;;;5039362;28;20049;-88
2023/06/02 04:48:32;;;;;;;10.15;3.30;;;;;;;;;;5057028;28;20479;-89
2023/06/02 04:50:57;;;;;;;10.25;3.63;;;;;;;;;;5040539;28;20037;-91
2023/06/02 04:53:23;;;;;;;6.45;2.65;;;;;;;;;;5021730;28;20070;-87
2023/06/02 04:55:48;;;;;;;10.88;2.97;;;;;;;;;;5022918;28;20028;-88
2023/06/02 04:58:14;;;;;;;11.27;2.97;;;;;;;;;;5054958;28;20112;-89
2023/06/02 05:00:42;;;;;;;7.70;2.83;;;;;;;;;;5021410;28;20115;-85
2023/06/02 05:03:08;;;;;;;7.72;2.75;;;;;;;;;;5021648;28;20104;-85
2023/06/02 05:05:33;;;;;;;6.00;2.55;;;;;;;;;;5054945;28;20116;-85
2023/06/02 05:07:58;;;;;;;6.88;2.50;;;;;;;;;;5037069;28;20028;-85
2023/06/02 05:10:24;;;;;;;6.93;2.60;;;;;;;;;;5037185;28;20036;-85
2023/06/02 05:12:49;;;;;;;6.40;2.33;;;;;;;;;;5054675;28;20057;-85
2023/06/02 05:15:16;;;;;;;11.63;2.63;;;;;;;;;;5020821;28;20473;-84
2023/06/02 05:17:43;;;;;;;9.32;2.80;;;;;;;;;;5038726;28;20103;-84
2023/06/02 05:20:09;;;;;;;7.80;3.00;;;;;;;;;;5038420;28;20033;-85
2023/06/02 05:22:35;;;;;;;7.78;2.42;;;;;;;;;;5037755;28;20106;-84
2023/06/02 05:25:02;;;;;;;5.15;2.58;;;;;;;;;;5022716;28;20041;-85
2023/06/02 05:27:27;;;;;;;6.13;2.50;;;;;;;;;;5037188;28;20365;-84
2023/06/02 05:29:53;;;;;;;4.95;2.30;;;;;;;;;;5036702;28;20028;-84
2023/06/02 05:32:22;;;;;;;5.65;2.05;;;;;;;;;;5036696;28;20028;-85
2023/06/02 05:34:48;;;;;;;6.60;1.90;;;;;;;;;;5037884;28;20112;-85
2023/06/02 05:37:13;;;;;;;5.63;2.10;;;;;;;;;;5037252;28;20483;-85
2023/06/02 05:39:41;;;;;;;8.18;2.17;;;;;;;;;;5054043;28;20039;-85
2023/06/02 05:42:07;;;;;;;5.15;2.35;;;;;;;;;;5054257;28;20036;-85
2023/06/02 05:44:32;;;;;;;7.55;2.25;;;;;;;;;;5037387;28;20387;-85
2023/06/02 05:46:58;;;;;;;6.10;2.13;;;;;;;;;;5019327;28;20057;-85
2023/06/02 05:49:23;;;;;;;5.63;2.40;;;;;;;;;;5019804;28;20037;-85
2023/06/02 05:51:49;;;;;;;6.43;1.90;;;;;;;;;;5054078;28;20178;-84
2023/06/02 05:54:14;;;;;;;6.60;2.47;;;;;;;;;;5035613;28;20421;-81
2023/06/02 05:56:39;;;;;;;9.13;2.10;;;;;;;;;;5054030;28;20020;-84
2023/06/02 05:59:05;;;;;;;6.90;2.33;;;;;;;;;;5036318;28;20033;-81
2023/06/02 06:01:30;;;;;;;12.40;2.00;;;;;;;;;;5036378;28;20040;-84
2023/06/02 06:03:56;;;;;;;6.35;2.78;;;;;;;;;;5055575;28;20118;-85
2023/06/02 06:06:21;;;;;;;7.45;2.25;;;;;;;;;;5020420;28;20424;-85
2023/06/02 06:08:47;;;;;;;6.38;2.25;;;;;;;;;;5037428;28;20556;-85
2023/06/02 06:11:12;;;;;;;6.78;2.33;;;;;;;;;;5055041;28;20181;-84
2023/06/02 06:13:38;;;;;;;6.97;2.08;;;;;;;;;;5037823;28;20044;-83
2023/06/02 06:16:03;;;;;;;7.18;2.13;;;;;;;;;;5037344;28;20029;-82
2023/06/02 06:18:29;;;;;;;7.25;2.30;;;;;;;;;;5019822;28;20479;-81
2023/06/02 06:20:54;;;;;;;8.05;1.90;;;;;;;;;;5036434;28;20033;-84
2023/06/02 06:23:19;;;;;;;14.95;2.50;;;;;;;;;;5035738;28;20503;-82
2023/06/02 06:25:45;;;;;;;9.95;2.10;;;;;;;;;;5035580;28;20028;-83
2023/06/02 06:28:10;;;;;;;7.32;1.60;;;;;;;;;;5035319;28;20372;-82
2023/06/02 06:30:39;;;;;;;7.95;1.98;;;;;;;;;;5035795;28;20029;-81
2023/06/02 06:33:05;;;;;;;5.30;1.73;;;;;;;;;;5035931;28;20032;-79
2023/06/02 06:35:30;;;;;;;6.63;1.88;;;;;;;;;;5053781;28;20471;-83
2023/06/02 06:37:56;;;;;;;14.05;2.10;;;;;;;;;;5036095;28;20029;-89
2023/06/02 06:40:21;;;;;;;8.32;1.90;;;;;;;;;;5020466;28;20155;-83
2023/06/02 06:42:47;;;;;;;13.77;2.45;;;;;;;;;;5020016;28;20025;-84
2023/06/02 06:45:12;;;;;;;16.25;2.00;;;;;;;;;;5053864;28;20074;-86
2023/06/02 06:47:38;;;;;;;5.82;1.73;;;;;;;;;;5019980;28;20079;-85
2023/06/02 06:50:04;;;;;;;12.05;2.70;;;;;;;;;;5019707;28;20033;-85
2023/06/02 06:52:29;;;;;;;11.57;2.10;;;;;;;;;;5015951;28;20507;-85
2023/06/02 06:54:55;;;;;;;10.57;2.50;;;;;;;;;;5023173;28;20475;-84
2023/06/02 06:57:20;;;;;;;9.20;1.52;;;;;;;;;;5022729;28;20033;-86
2023/06/02 06:59:47;;;;;;;10.48;1.98;;;;;;;;;;5039311;28;20032;-81
2023/06/02 07:02:12;;;;;;;7.95;1.90;;;;;;;;;;5039797;28;20029;-82
2023/06/02 07:04:38;;;;;;;13.05;2.00;;;;;;;;;;5040611;28;20059;-86
2023/06/02 07:07:04;;;;;;;6.82;1.77;;;;;;;;;;5024257;28;20044;-85
2023/06/02 07:09:29;;;;;;;5.13;1.70;;;;;;;;;;5040680;28;20098;-86
2023/06/02 07:11:56;;;;;;;7.85;1.80;;;;;;;;;;5057967;28;20033;-86
2023/06/02 07:14:22;;;;;;;7.93;1.90;;;;;;;;;;5040466;28;20095;-84
2023/06/02 07:16:50;;;;;;;6.70;1.80;;;;;;;;;;5041328;28;20029;-84
2023/06/02 07:19:16;;;;;;;7.90;1.83;;;;;;;;;;5023406;28;20021;-85
2023/06/02 07:21:41;;;;;;;9.13;1.90;;;;;;;;;;5024128;28;20078;-85
2023/06/02 07:24:07;;;;;;;4.00;1.80;;;;;;;;;;5039362;28;20021;-85
2023/06/02 07:26:32;;;;;;;7.22;1.90;;;;;;;;;;5040781;28;20101;-82
2023/06/02 07:28:57;;;;;;;5.80;1.63;;;;;;;;;;5040081;28;20040;-83
2023/06/02 07:31:23;;;;;;;10.68;2.25;;;;;;;;;;5025541;28;20088;-83
2023/06/02 07:33:48;;;;;;;8.82;2.00;;;;;;;;;;5041260;28;20048;-84
2023/06/02 07:36:14;;;;;;;12.45;2.33;;;;;;;;;;5039154;28;20052;-82
2023/06/02 07:38:40;;;;;;;6.25;2.05;;;;;;;;;;5040333;28;20112;-83
2023/06/02 07:41:05;;;;;;;7.85;1.80;;;;;;;;;;5039188;28;20383;-84
2023/06/02 07:43:30;;;;;;;7.75;1.65;;;;;;;;;;5005970;28;20075;-84
2023/06/02 07:45:56;;;;;;;10.48;2.00;;;;;;;;;;5038462;28;20122;-84
2023/06/02 07:48:21;;;;;;;7.03;1.80;;;;;;;;;;5056643;28;20029;-83
2023/06/02 07:50:47;;;;;;;3.33;1.60;;;;;;;;;;5038983;28;20111;-84
2023/06/02 07:53:12;;;;;;;5.30;1.85;;;;;;;;;;5056555;28;20060;-83
2023/06/02 07:55:37;;;;;;;6.50;1.67;;;;;;;;;;5021274;28;20029;-81
2023/06/02 07:58:03;;;;;;;5.63;1.60;;;;;;;;;;5037462;28;20041;-82
2023/06/02 08:00:28;;;;;;;5.75;1.88;;;;;;;;;;5037655;28;20051;-81
2023/06/02 08:02:54;;;;;;;7.53;1.80;;;;;;;;;;5038204;28;20364;-81
2023/06/02 08:05:19;;;;;;;5.90;1.80;;;;;;;;;;5019895;28;20055;-82
2023/06/02 08:07:45;;;;;;;4.07;1.38;;;;;;;;;;5001599;28;20444;-82
2023/06/02 08:10:11;;;;;;;8.30;1.90;;;;;;;;;;5001650;28;20033;-82
2023/06/02 08:12:37;;;;;;;5.03;1.58;;;;;;;;;;5017880;28;20033;-81
2023/06/02 08:15:04;;;;;;;8.98;2.55;;;;;;;;;;5017648;28;20124;-82
2023/06/02 08:17:29;;;;;;;11.38;2.75;;;;;;;;;;4989397;28;20041;-82
2023/06/02 08:19:59;;;;;;;18.80;4.00;;;;;;;;;;5000653;28;20026;-83
2023/06/02 08:22:26;;;;;;;15.05;4.13;;;;;;;;;;5037831;28;20096;-82
2023/06/02 08:24:55;;;;;;;12.32;3.55;;;;;;;;;;5002884;28;20029;-81
2023/06/02 08:27:21;;;;;;;17.75;4.15;;;;;;;;;;5036886;28;20040;-81
2023/06/02 08:29:49;;;;;;;17.42;3.53;;;;;;;;;;5018705;28;20034;-82
2023/06/02 08:32:16;;;;;;;18.58;3.67;;;;;;;;;;5036233;28;20021;-82
2023/06/02 08:34:44;;;;;;;30.23;4.47;;;;;;;;;;5018091;28;20484;-81
2023/06/02 08:37:15;;;;;;;16.13;2.90;;;;;;;;;;4984820;28;20491;-78
2023/06/02 08:39:40;;;;;;;11.75;3.08;;;;;;;;;;5015288;28;20030;-80
2023/06/02 08:42:08;;;;;;;20.60;3.08;;;;;;;;;;5015982;28;20025;-80
2023/06/02 08:44:35;;;;;;;9.50;2.65;;;;;;;;;;4985953;28;20055;-80
2023/06/02 08:47:01;;;;;;;9.93;2.23;;;;;;;;;;4977239;28;1183535;-79
2023/06/02 08:49:28;;;;;;;35.58;7.25;;;;;;;;;;5007194;28;20271;-81
2023/06/02 08:52:00;;;;;;;24.42;4.90;;;;;;;;;;5021853;28;20045;-82
2023/06/02 08:54:27;;;;;;;22.05;3.70;;;;;;;;;;5005605;28;20064;-88
2023/06/02 08:56:57;;;;;;;19.40;3.70;;;;;;;;;;5041418;28;20028;-83
2023/06/02 08:59:23;;;;;;;12.25;3.30;;;;;;;;;;5027367;28;20032;-85
2023/06/02 09:01:49;;;;;;;22.83;3.50;;;;;;;;;;5051138;28;20101;-82
2023/06/02 09:04:14;;;;;;;11.93;3.50;;;;;;;;;;5027865;28;20045;-81
2023/06/02 09:06:40;;;;;;;9.32;2.80;;;;;;;;;;5030442;28;20044;-82
2023/06/02 09:09:06;;;;;;;17.67;3.45;;;;;;;;;;5051017;28;20495;-82
2023/06/02 09:11:32;;;;;;;11.18;2.95;;;;;;;;;;5046835;28;20028;-83
2023/06/02 09:13:58;;;;;;;12.13;3.13;;;;;;;;;;5059758;28;20124;-83
2023/06/02 09:16:37;;;;;;;8.68;2.90;;;;;;;;;;5025528;28;20436;-83
2023/06/02 09:19:03;;;;;;;13.85;2.70;;;;;;;;;;5042436;28;20029;-83
2023/06/02 09:21:32;;;;;;;11.20;2.45;;;;;;;;;;5041302;28;20036;-83
2023/06/02 09:23:59;;;;;;;11.10;3.40;;;;;;;;;;5040625;28;20025;-83
2023/06/02 09:26:26;;;;;;;10.45;2.88;;;;;;;;;;5041960;28;20082;-83
2023/06/02 09:29:06;;;;;;;11.05;2.60;;;;;;;;;;5025320;28;20033;-84
2023/06/02 09:31:49;;;;;;;6.93;2.40;;;;;;;;;;5045563;28;20024;-80
2023/06/02 09:34:16;;;;;;;10.68;2.90;;;;;;;;;;5029078;28;20104;-80
2023/06/02 09:36:42;;;;;;;11.40;2.78;;;;;;;;;;5064936;28;20083;-82
2023/06/02 09:39:11;;;;;;;9.02;2.67;;;;;;;;;;5032793;28;20032;-81
2023/06/02 09:41:38;;;;;;;8.32;2.45;;;;;;;;;;5048673;28;20123;-82
2023/06/02 09:44:11;;;;;;;8.18;2.55;;;;;;;;;;5052210;28;20032;-83
2023/06/02 09:46:44;;;;;;;11.07;3.20;;;;;;;;;;5033655;28;20052;-83
2023/06/02 09:49:10;;;;;;;4.97;2.47;;;;;;;;;;5020080;28;20039;-83
2023/06/02 09:51:37;;;;;;;6.88;2.20;;;;;;;;;;5048199;28;20092;-82
2023/06/02 09:54:03;;;;;;;8.57;2.60;;;;;;;;;;5063076;28;20029;-83
2023/06/02 09:56:33;;;;;;;7.10;2.15;;;;;;;;;;5041832;28;20029;-83
2023/06/02 09:59:00;;;;;;;7.53;2.60;;;;;;;;;;5055153;28;20115;-83
2023/06/02 10:01:26;;;;;;;9.45;2.17;;;;;;;;;;5047052;28;20498;-82
2023/06/02 10:03:51;;;;;;;12.27;2.58;;;;;;;;;;5061556;28;20049;-83
2023/06/02 10:06:25;;;;;;;10.57;2.03;;;;;;;;;;5034133;28;20060;-82
2023/06/02 10:08:50;;;;;;;;;;;;;;;;;;5040817;28;20043;-83
2023/06/02 10:11:31;;;;;;;5.77;2.17;;;;;;;;;;5067492;28;19999;-82
2023/06/02 10:14:16;;;;;;;12.95;2.08;;;;;;;;;;5039542;28;20772;-83
2023/06/02 10:17:08;;;;;;;11.15;2.00;;;;;;;;;;5037934;28;20067;-82
2023/06/02 10:19:52;;;;;;;15.00;2.88;;;;;;;;;;5037074;28;20025;-83
2023/06/02 10:22:26;;;;;;;;;;;;;;;;;;5054191;28;20096;-83
2023/06/02 10:25:33;;;;;;;15.57;2.67;;;;;;;;;;5054353;28;19909;-83
2023/06/02 10:28:01;;;;;;;11.27;2.90;;;;;;;;;;5014701;28;20471;-83
2023/06/02 10:30:27;;;;;;;12.63;3.00;;;;;;;;;;5037495;28;20048;-83
2023/06/02 10:32:53;;;;;;;8.63;2.65;;;;;;;;;;5054980;28;20068;-83
2023/06/02 10:35:19;;;;;;;13.45;2.88;;;;;;;;;;5055787;28;20464;-83
2023/06/02 10:37:45;;;;;;;8.45;2.40;;;;;;;;;;5054972;28;20104;-84
2023/06/02 10:40:11;;;;;;;8.52;2.67;;;;;;;;;;5019681;28;20060;-84
2023/06/02 10:42:37;;;;;;;8.00;2.70;;;;;;;;;;5036367;28;20391;-85
2023/06/02 10:45:21;;;;;;;7.93;2.67;;;;;;;;;;5019566;28;20053;-84
2023/06/02 10:47:47;;;;;;;8.38;3.50;;;;;;;;;;5053684;28;20079;-84
2023/06/02 10:50:21;;;;;;;9.38;3.25;;;;;;;;;;5035570;28;20037;-85
2023/06/02 10:52:59;;;;;;;5.15;2.72;;;;;;;;;;5037216;28;20029;-85
2023/06/02 10:55:26;;;;;;;6.45;2.70;;;;;;;;;;5053619;28;20033;-84
2023/06/02 10:58:03;;;;;;;9.15;3.05;;;;;;;;;;5035648;28;20029;-84
2023/06/02 11:00:45;;;;;;;8.93;2.90;;;;;;;;;;5019452;28;20049;-84
2023/06/02 11:03:22;;;;;;;7.85;2.85;;;;;;;;;;5054014;28;20055;-84
2023/06/02 11:05:54;;;;;;;9.23;2.65;;;;;;;;;;5035514;28;20029;-84
2023/06/02 11:08:21;;;;;;;6.32;2.42;;;;;;;;;;5036748;28;20384;-85
2023/06/02 11:11:00;;;;;;;7.55;2.70;;;;;;;;;;5053454;28;20036;-84
2023/06/02 11:13:26;;;;;;;9.13;3.78;;;;;;;;;;5036518;28;20033;-85
2023/06/02 11:15:52;;;;;;;17.75;6.55;;;;;;;;;;5036081;28;20128;-85
2023/06/02 11:18:25;;;;;;;17.67;7.03;;;;;;;;;;5054555;28;20082;-84
2023/06/02 11:20:55;;;;;;;22.83;9.82;;;;;;;;;;5039019;28;20120;-87
2023/06/02 11:23:21;;;;;;;25.30;10.25;;;;;;;;;;5036185;28;20079;-86
2023/06/02 11:25:47;;;;;;;30.67;9.82;;;;;;;;;;5019533;28;20048;-85
2023/06/02 11:28:21;;;;;;;21.73;9.43;;;;;;;;;;5036474;28;20468;-86
2023/06/02 11:30:47;;;;;;;;;;;;;;;;;;5036445;28;20040;-86
2023/06/02 11:33:12;;;;;;;17.60;6.90;;;;;;;;;;5018455;28;20003;-86
2023/06/02 11:35:39;;;;;;;16.92;7.45;;;;;;;;;;5035491;28;20025;-85
2023/06/02 11:38:08;;;;;;;21.35;6.25;;;;;;;;;;5021883;28;20111;-86
2023/06/02 11:40:35;;;;;;;13.07;6.05;;;;;;;;;;5038934;28;20062;-86
2023/06/02 11:43:01;;;;;;;11.57;5.20;;;;;;;;;;5042108;28;20043;-84
2023/06/02 11:45:27;;;;;;;13.02;4.28;;;;;;;;;;5048568;28;20116;-81
2023/06/02 11:47:57;;;;;;;12.13;4.15;;;;;;;;;;5039189;28;20091;-85
2023/06/02 11:50:23;;;;;;;15.05;4.50;;;;;;;;;;5040120;28;20036;-86
2023/06/02 11:52:48;;;;;;;19.02;3.60;;;;;;;;;;5023748;28;20430;-84
2023/06/02 11:55:15;;;;;;;15.77;4.43;;;;;;;;;;5038397;28;20029;-84
2023/06/02 11:57:43;;;;;;;8.45;3.42;;;;;;;;;;5022581;28;20082;-86
2023/06/02 12:00:11;;;;;;;10.52;2.80;;;;;;;;;;5056832;28;20381;-89
2023/06/02 12:02:38;;;;;;;9.10;3.13;;;;;;;;;;5022750;28;20111;-88
2023/06/02 12:05:09;;;;;;;7.20;2.33;;;;;;;;;;5039180;28;20033;-87
2023/06/02 12:07:35;;;;;;;14.88;2.88;;;;;;;;;;5022410;28;20445;-85
2023/06/02 12:10:05;;;;;;;9.73;2.58;;;;;;;;;;5017300;28;20084;-85
2023/06/02 12:12:32;;;;;;;10.88;2.67;;;;;;;;;;4988730;28;20373;-85
2023/06/02 12:14:58;;;;;;;14.95;3.30;;;;;;;;;;5023252;28;20067;-83
2023/06/02 12:17:33;;;;;;;6.45;2.47;;;;;;;;;;5028367;28;20037;-84
2023/06/02 12:19:59;;;;;;;9.23;2.72;;;;;;;;;;5019223;28;20053;-83
2023/06/02 12:22:25;;;;;;;7.57;2.50;;;;;;;;;;5019614;28;20040;-85
2023/06/02 12:24:54;;;;;;;9.52;2.35;;;;;;;;;;5009306;28;20029;-86
2023/06/02 12:27:21;;;;;;;5.20;2.30;;;;;;;;;;5003500;28;20093;-85
2023/06/02 12:29:47;;;;;;;6.32;2.17;;;;;;;;;;5036856;28;20029;-84
2023/06/02 12:32:15;;;;;;;7.05;2.38;;;;;;;;;;5035892;28;20169;-84
2023/06/02 12:34:42;;;;;;;6.55;2.50;;;;;;;;;;5036671;28;20143;-84
2023/06/02 12:37:09;;;;;;;6.38;2.60;;;;;;;;;;5018158;28;20104;-85
2023/06/02 12:39:35;;;;;;;9.07;2.50;;;;;;;;;;5011843;28;20424;-84
2023/06/02 12:42:00;;;;;;;8.55;2.35;;;;;;;;;;5015539;28;20037;-81
2023/06/02 12:44:26;;;;;;;5.55;1.92;;;;;;;;;;5036162;28;20022;-84
2023/06/02 12:46:53;;;;;;;6.78;2.35;;;;;;;;;;5018333;28;20058;-84
2023/06/02 12:49:19;;;;;;;9.52;2.08;;;;;;;;;;5033452;28;20481;-83
2023/06/02 12:51:44;;;;;;;6.72;2.30;;;;;;;;;;5002013;28;20064;-84
2023/06/02 12:54:10;;;;;;;7.07;1.88;;;;;;;;;;5002124;28;20036;-84
2023/06/02 12:56:35;;;;;;;4.82;2.03;;;;;;;;;;5018720;28;20067;-84
2023/06/02 12:59:03;;;;;;;8.23;2.35;;;;;;;;;;5002181;28;20476;-86
2023/06/02 13:01:28;;;;;;;11.40;3.17;;;;;;;;;;5035281;28;20029;-80
2023/06/02 13:03:55;;;;;;;12.25;2.92;;;;;;;;;;4997995;28;20042;-87
2023/06/02 13:06:21;;;;;;;7.57;2.20;;;;;;;;;;5012020;28;20457;-84
2023/06/02 13:08:46;;;;;;;11.45;2.55;;;;;;;;;;5002033;28;20030;-83
2023/06/02 13:11:12;;;;;;;13.10;2.65;;;;;;;;;;5017370;28;20029;-82
2023/06/02 13:13:37;;;;;;;8.57;2.40;;;;;;;;;;5017894;28;20112;-82
2023/06/02 13:16:03;;;;;;;8.52;3.25;;;;;;;;;;5034678;28;20044;-82
2023/06/02 13:18:29;;;;;;;10.43;2.45;;;;;;;;;;5000728;28;20037;-82
2023/06/02 13:20:54;;;;;;;6.38;2.13;;;;;;;;;;5018437;28;20060;-83
2023/06/02 13:23:21;;;;;;;6.45;2.60;;;;;;;;;;5035224;28;20030;-82
2023/06/02 13:25:46;;;;;;;10.02;2.25;;;;;;;;;;5015260;28;20476;-84
2023/06/02 13:28:12;;;;;;;6.55;2.60;;;;;;;;;;5017009;28;20077;-84
2023/06/02 13:30:37;;;;;;;8.65;2.45;;;;;;;;;;5018128;28;20448;-85
2023/06/02 13:33:03;;;;;;;8.70;2.60;;;;;;;;;;5035452;28;20056;-84
2023/06/02 13:35:28;;;;;;;7.05;2.50;;;;;;;;;;5018960;28;20029;-85
2023/06/02 13:37:54;;;;;;;6.30;2.63;;;;;;;;;;5000602;28;20052;-84
2023/06/02 13:40:22;;;;;;;6.97;2.55;;;;;;;;;;5001192;28;20129;-84
2023/06/02 13:42:48;;;;;;;4.57;2.00;;;;;;;;;;5002243;28;20388;-85
2023/06/02 13:45:13;;;;;;;5.47;2.40;;;;;;;;;;5000065;28;20054;-85
2023/06/02 13:47:39;;;;;;;5.63;2.53;;;;;;;;;;4993837;28;20122;-84
2023/06/02 13:50:05;;;;;;;9.10;2.53;;;;;;;;;;4977568;28;20034;-85
2023/06/02 13:52:30;;;;;;;6.88;2.28;;;;;;;;;;4962677;28;20030;-85
2023/06/02 13:54:57;;;;;;;4.93;2.10;;;;;;;;;;4961894;28;20371;-85
2023/06/02 13:57:22;;;;;;;5.03;2.13;;;;;;;;;;4977577;28;20026;-85
2023/06/02 13:59:47;;;;;;;7.57;2.00;;;;;;;;;;4976623;28;20033;-85
2023/06/02 14:02:13;;;;;;;8.77;1.98;;;;;;;;;;5005947;28;20037;-85
2023/06/02 14:04:40;;;;;;;16.40;3.13;;;;;;;;;;4981796;28;20118;-86
2023/06/02 14:07:05;;;;;;;4.75;2.40;;;;;;;;;;4996456;28;20504;-85
2023/06/02 14:09:30;;;;;;;7.80;2.67;;;;;;;;;;4980489;28;20041;-85
2023/06/02 14:11:56;;;;;;;7.60;2.50;;;;;;;;;;4979821;28;20476;-83
2023/06/02 14:14:23;;;;;;;7.18;2.65;;;;;;;;;;4979655;28;20050;-86
2023/06/02 14:16:48;;;;;;;6.25;2.35;;;;;;;;;;5012052;28;20065;-85
2023/06/02 14:19:14;;;;;;;7.15;2.40;;;;;;;;;;4995222;28;20068;-87
2023/06/02 14:21:39;;;;;;;4.20;2.20;;;;;;;;;;4976808;28;20474;-87
2023/06/02 14:24:05;;;;;;;7.28;2.60;;;;;;;;;;4992675;28;20022;-86
2023/06/02 14:26:31;;;;;;;14.30;3.03;;;;;;;;;;4992793;28;20039;-85
2023/06/02 14:28:56;;;;;;;10.18;3.45;;;;;;;;;;4992467;28;20034;-85
2023/06/02 14:31:22;;;;;;;10.65;2.42;;;;;;;;;;4992638;28;20458;-84
2023/06/02 14:33:47;;;;;;;9.55;2.60;;;;;;;;;;4975903;28;20117;-83
2023/06/02 14:36:13;;;;;;;7.18;2.20;;;;;;;;;;4993606;28;20396;-84
2023/06/02 14:38:39;;;;;;;7.97;2.50;;;;;;;;;;4993317;28;20436;-85